sensor_id;sensor_type;location;lat;lon;timestamp;pressure;altitude;pressure_sealevel;temperature;humidity
36598;BME280;22607;49.550;11.940;2024-02-15T00:01:42;97289.81;;;8.44;100.00
36598;BME280;22607;49.550;11.940;2024-02-15T00:04:16;97276.88;;;8.43;100.00
36598;BME280;22607;49.550;11.940;2024-02-15T00:06:44;97280.03;;;8.46;100.00
36598;BME280;22607;49.550;11.940;2024-02-15T00:09:11;97275.47;;;8.48;100.00
36598;BME280;22607;49.550;11.940;2024-02-15T00:11:38;97266.34;;;8.34;100.00
36598;BME280;22607;49.550;11.940;2024-02-15T00:14:08;97273.28;;;8.44;100.00
36598;BME280;22607;49.550;11.940;2024-02-15T00:16:35;97257.22;;;8.38;100.00
36598;BME280;22607;49.550;11.940;2024-02-15T00:19:02;97270.31;;;8.38;100.00
36598;BME280;22607;49.550;11.940;2024-02-15T00:21:31;97285.13;;;8.48;100.00
36598;BME280;22607;49.550;11.940;2024-02-15T00:23:58;97277.78;;;8.51;100.00
36598;BME280;22607;49.550;11.940;2024-02-15T00:26:26;97259.00;;;8.38;100.00
36598;BME280;22607;49.550;11.940;2024-02-15T00:28:53;97274.66;;;8.48;100.00
36598;BME280;22607;49.550;11.940;2024-02-15T00:31:20;97264.19;;;8.48;100.00
36598;BME280;22607;49.550;11.940;2024-02-15T00:33:49;97269.94;;;8.51;100.00
36598;BME280;22607;49.550;11.940;2024-02-15T00:36:16;97275.06;;;8.53;100.00
36598;BME280;22607;49.550;11.940;2024-02-15T00:38:44;97265.31;;;8.45;100.00
36598;BME280;22607;49.550;11.940;2024-02-15T00:41:11;97256.16;;;8.31;100.00
36598;BME280;22607;49.550;11.940;2024-02-15T00:43:42;97254.50;;;8.30;100.00
36598;BME280;22607;49.550;11.940;2024-02-15T00:46:10;97254.56;;;8.20;100.00
36598;BME280;22607;49.550;11.940;2024-02-15T00:48:40;97252.47;;;8.24;100.00
36598;BME280;22607;49.550;11.940;2024-02-15T00:51:08;97271.34;;;8.46;100.00
36598;BME280;22607;49.550;11.940;2024-02-15T00:53:35;97251.66;;;8.41;100.00
36598;BME280;22607;49.550;11.940;2024-02-15T00:56:03;97259.47;;;8.51;100.00
36598;BME280;22607;49.550;11.940;2024-02-15T00:58:30;97256.00;;;8.51;100.00
36598;BME280;22607;49.550;11.940;2024-02-15T01:01:00;97264.44;;;8.55;100.00
36598;BME280;22607;49.550;11.940;2024-02-15T01:03:27;97265.50;;;8.52;100.00
36598;BME280;22607;49.550;11.940;2024-02-15T01:05:55;97264.84;;;8.50;100.00
36598;BME280;22607;49.550;11.940;2024-02-15T01:08:22;97262.22;;;8.50;100.00
36598;BME280;22607;49.550;11.940;2024-02-15T01:10:51;97244.72;;;8.50;100.00
36598;BME280;22607;49.550;11.940;2024-02-15T01:13:19;97265.25;;;8.55;100.00
36598;BME280;22607;49.550;11.940;2024-02-15T01:15:46;97264.97;;;8.48;100.00
36598;BME280;22607;49.550;11.940;2024-02-15T01:18:16;97252.66;;;8.40;100.00
36598;BME280;22607;49.550;11.940;2024-02-15T01:20:43;97257.00;;;8.50;100.00
36598;BME280;22607;49.550;11.940;2024-02-15T01:23:11;97260.59;;;8.49;100.00
36598;BME280;22607;49.550;11.940;2024-02-15T01:25:39;97264.31;;;8.46;100.00
36598;BME280;22607;49.550;11.940;2024-02-15T01:28:06;97254.00;;;8.45;100.00
36598;BME280;22607;49.550;11.940;2024-02-15T01:30:33;97264.69;;;8.51;100.00
36598;BME280;22607;49.550;11.940;2024-02-15T01:33:02;97256.72;;;8.53;100.00
36598;BME280;22607;49.550;11.940;2024-02-15T01:35:30;97254.63;;;8.57;100.00
36598;BME280;22607;49.550;11.940;2024-02-15T01:37:57;97252.84;;;8.57;100.00
36598;BME280;22607;49.550;11.940;2024-02-15T01:40:23;97234.56;;;8.47;100.00
36598;BME280;22607;49.550;11.940;2024-02-15T01:42:50;97252.69;;;8.59;100.00
36598;BME280;22607;49.550;11.940;2024-02-15T01:45:19;97237.13;;;8.57;100.00
36598;BME280;22607;49.550;11.940;2024-02-15T01:47:48;97240.50;;;8.68;100.00
36598;BME280;22607;49.550;11.940;2024-02-15T01:50:18;97244.00;;;8.58;100.00
36598;BME280;22607;49.550;11.940;2024-02-15T01:52:47;97239.06;;;8.55;100.00
36598;BME280;22607;49.550;11.940;2024-02-15T01:55:16;97238.41;;;8.53;100.00
36598;BME280;22607;49.550;11.940;2024-02-15T01:57:45;97252.84;;;8.57;100.00
36598;BME280;22607;49.550;11.940;2024-02-15T02:00:18;97236.03;;;8.50;100.00
36598;BME280;22607;49.550;11.940;2024-02-15T02:02:45;97249.09;;;8.60;100.00
36598;BME280;22607;49.550;11.940;2024-02-15T02:05:13;97234.09;;;8.52;100.00
36598;BME280;22607;49.550;11.940;2024-02-15T02:07:42;97240.19;;;8.52;100.00
36598;BME280;22607;49.550;11.940;2024-02-15T02:10:09;97227.13;;;8.43;100.00
36598;BME280;22607;49.550;11.940;2024-02-15T02:12:43;97230.59;;;8.43;100.00
36598;BME280;22607;49.550;11.940;2024-02-15T02:15:10;97237.91;;;8.39;100.00
36598;BME280;22607;49.550;11.940;2024-02-15T02:17:37;97233.72;;;8.47;100.00
36598;BME280;22607;49.550;11.940;2024-02-15T02:20:07;97234.41;;;8.49;100.00
36598;BME280;22607;49.550;11.940;2024-02-15T02:22:35;97232.91;;;8.46;100.00
36598;BME280;22607;49.550;11.940;2024-02-15T02:25:06;97236.16;;;8.58;100.00
36598;BME280;22607;49.550;11.940;2024-02-15T02:27:35;97234.69;;;8.46;100.00
36598;BME280;22607;49.550;11.940;2024-02-15T02:30:13;97241.03;;;8.53;100.00
36598;BME280;22607;49.550;11.940;2024-02-15T02:32:45;97245.38;;;8.62;100.00
36598;BME280;22607;49.550;11.940;2024-02-15T02:35:16;97239.16;;;8.63;100.00
36598;BME280;22607;49.550;11.940;2024-02-15T02:37:47;97240.41;;;8.59;100.00
36598;BME280;22607;49.550;11.940;2024-02-15T02:40:15;97232.13;;;8.64;100.00
36598;BME280;22607;49.550;11.940;2024-02-15T02:45:19;97234.06;;;8.62;100.00
36598;BME280;22607;49.550;11.940;2024-02-15T02:47:49;97238.16;;;8.64;100.00
36598;BME280;22607;49.550;11.940;2024-02-15T02:50:23;97230.59;;;8.61;100.00
36598;BME280;22607;49.550;11.940;2024-02-15T02:52:51;97232.19;;;8.54;100.00
36598;BME280;22607;49.550;11.940;2024-02-15T02:55:18;97234.19;;;8.60;100.00
36598;BME280;22607;49.550;11.940;2024-02-15T02:57:45;97230.22;;;8.56;100.00
36598;BME280;22607;49.550;11.940;2024-02-15T03:00:13;97243.31;;;8.56;100.00
36598;BME280;22607;49.550;11.940;2024-02-15T03:02:43;97243.50;;;8.55;100.00
36598;BME280;22607;49.550;11.940;2024-02-15T03:05:10;97239.28;;;8.62;100.00
36598;BME280;22607;49.550;11.940;2024-02-15T03:07:39;97239.63;;;8.49;100.00
36598;BME280;22607;49.550;11.940;2024-02-15T03:10:09;97235.69;;;8.45;100.00
36598;BME280;22607;49.550;11.940;2024-02-15T03:12:37;97228.84;;;8.34;100.00
36598;BME280;22607;49.550;11.940;2024-02-15T03:15:06;97248.47;;;8.48;100.00
36598;BME280;22607;49.550;11.940;2024-02-15T03:17:42;97251.75;;;8.50;100.00
36598;BME280;22607;49.550;11.940;2024-02-15T03:20:12;97248.75;;;8.45;100.00
36598;BME280;22607;49.550;11.940;2024-02-15T03:22:54;97245.84;;;8.48;100.00
36598;BME280;22607;49.550;11.940;2024-02-15T03:25:22;97245.84;;;8.48;100.00
36598;BME280;22607;49.550;11.940;2024-02-15T03:27:53;97248.03;;;8.52;100.00
36598;BME280;22607;49.550;11.940;2024-02-15T03:30:22;97234.56;;;8.47;100.00
36598;BME280;22607;49.550;11.940;2024-02-15T03:32:50;97249.41;;;8.57;100.00
36598;BME280;22607;49.550;11.940;2024-02-15T03:35:19;97239.41;;;8.42;100.00
36598;BME280;22607;49.550;11.940;2024-02-15T03:37:46;97241.28;;;8.50;100.00
36598;BME280;22607;49.550;11.940;2024-02-15T03:40:13;97246.25;;;8.53;100.00
36598;BME280;22607;49.550;11.940;2024-02-15T03:42:41;97253.13;;;8.54;100.00
36598;BME280;22607;49.550;11.940;2024-02-15T03:45:08;97247.63;;;8.47;100.00
36598;BME280;22607;49.550;11.940;2024-02-15T03:47:37;97255.47;;;8.57;100.00
36598;BME280;22607;49.550;11.940;2024-02-15T03:50:05;97236.16;;;8.58;100.00
36598;BME280;22607;49.550;11.940;2024-02-15T03:52:35;97239.97;;;8.64;100.00
36598;BME280;22607;49.550;11.940;2024-02-15T03:55:02;97262.47;;;8.75;100.00
36598;BME280;22607;49.550;11.940;2024-02-15T03:57:29;97254.63;;;8.75;100.00
36598;BME280;22607;49.550;11.940;2024-02-15T03:59:56;97259.56;;;8.78;100.00
36598;BME280;22607;49.550;11.940;2024-02-15T04:02:25;97254.47;;;8.76;100.00
36598;BME280;22607;49.550;11.940;2024-02-15T04:04:56;97264.59;;;8.71;100.00
36598;BME280;22607;49.550;11.940;2024-02-15T04:07:24;97259.34;;;8.71;100.00
36598;BME280;22607;49.550;11.940;2024-02-15T04:09:53;97253.59;;;8.68;100.00
36598;BME280;22607;49.550;11.940;2024-02-15T04:12:21;97251.78;;;8.68;100.00
36598;BME280;22607;49.550;11.940;2024-02-15T04:14:48;97245.38;;;8.62;100.00
36598;BME280;22607;49.550;11.940;2024-02-15T04:17:16;97257.47;;;8.63;100.00
36598;BME280;22607;49.550;11.940;2024-02-15T04:19:45;97255.91;;;8.52;100.00
36598;BME280;22607;49.550;11.940;2024-02-15T04:22:20;97265.31;;;8.45;100.00
36598;BME280;22607;49.550;11.940;2024-02-15T04:24:47;97254.88;;;8.35;100.00
36598;BME280;22607;49.550;11.940;2024-02-15T04:27:14;97244.19;;;8.28;100.00
36598;BME280;22607;49.550;11.940;2024-02-15T04:29:41;97259.03;;;8.28;100.00
36598;BME280;22607;49.550;11.940;2024-02-15T04:32:12;97244.69;;;8.32;100.00
36598;BME280;22607;49.550;11.940;2024-02-15T04:34:39;97256.81;;;8.33;100.00
36598;BME280;22607;49.550;11.940;2024-02-15T04:37:11;97248.91;;;8.25;100.00
36598;BME280;22607;49.550;11.940;2024-02-15T04:39:38;97238.19;;;8.18;100.00
36598;BME280;22607;49.550;11.940;2024-02-15T04:42:05;97242.69;;;8.26;100.00
36598;BME280;22607;49.550;11.940;2024-02-15T04:44:34;97236.38;;;8.19;100.00
36598;BME280;22607;49.550;11.940;2024-02-15T04:47:02;97241.34;;;8.40;100.00
36598;BME280;22607;49.550;11.940;2024-02-15T04:49:32;97243.16;;;8.39;100.00
36598;BME280;22607;49.550;11.940;2024-02-15T04:51:59;97240.16;;;8.34;100.00
36598;BME280;22607;49.550;11.940;2024-02-15T04:54:29;97247.88;;;8.36;100.00
36598;BME280;22607;49.550;11.940;2024-02-15T04:57:03;97246.75;;;8.38;100.00
36598;BME280;22607;49.550;11.940;2024-02-15T04:59:29;97254.88;;;8.35;100.00
36598;BME280;22607;49.550;11.940;2024-02-15T05:01:58;97249.88;;;8.42;100.00
36598;BME280;22607;49.550;11.940;2024-02-15T05:04:25;97255.13;;;8.42;100.00
36598;BME280;22607;49.550;11.940;2024-02-15T05:06:53;97253.47;;;8.41;100.00
36598;BME280;22607;49.550;11.940;2024-02-15T05:09:20;97245.06;;;8.37;100.00
36598;BME280;22607;49.550;11.940;2024-02-15T05:11:52;97245.63;;;8.41;100.00
36598;BME280;22607;49.550;11.940;2024-02-15T05:14:19;97240.63;;;8.48;100.00
36598;BME280;22607;49.550;11.940;2024-02-15T05:16:46;97233.88;;;8.45;100.00
36598;BME280;22607;49.550;11.940;2024-02-15T05:19:15;97239.63;;;8.49;100.00
36598;BME280;22607;49.550;11.940;2024-02-15T05:21:44;97230.59;;;8.43;100.00
36598;BME280;22607;49.550;11.940;2024-02-15T05:24:19;97236.50;;;8.45;100.00
36598;BME280;22607;49.550;11.940;2024-02-15T05:26:46;97233.34;;;8.41;100.00
36598;BME280;22607;49.550;11.940;2024-02-15T05:29:14;97241.56;;;8.47;100.00
36598;BME280;22607;49.550;11.940;2024-02-15T05:31:41;97228.84;;;8.34;100.00
36598;BME280;22607;49.550;11.940;2024-02-15T05:34:09;97246.53;;;8.50;100.00
36598;BME280;22607;49.550;11.940;2024-02-15T05:36:39;97237.59;;;8.43;100.00
36598;BME280;22607;49.550;11.940;2024-02-15T05:39:09;97249.75;;;8.44;100.00
36598;BME280;22607;49.550;11.940;2024-02-15T05:41:38;97241.19;;;8.41;100.00
36598;BME280;22607;49.550;11.940;2024-02-15T05:44:07;97245.78;;;8.39;100.00
36598;BME280;22607;49.550;11.940;2024-02-15T05:46:34;97240.69;;;8.38;100.00
36598;BME280;22607;49.550;11.940;2024-02-15T05:49:06;97256.06;;;8.23;100.00
36598;BME280;22607;49.550;11.940;2024-02-15T05:51:35;97248.28;;;8.31;100.00
36598;BME280;22607;49.550;11.940;2024-02-15T05:54:04;97248.81;;;8.35;100.00
36598;BME280;22607;49.550;11.940;2024-02-15T05:56:32;97250.78;;;8.33;100.00
36598;BME280;22607;49.550;11.940;2024-02-15T05:58:59;97252.41;;;8.34;100.00
36598;BME280;22607;49.550;11.940;2024-02-15T06:01:31;97259.22;;;8.26;100.00
36598;BME280;22607;49.550;11.940;2024-02-15T06:03:58;97252.25;;;8.35;100.00
36598;BME280;22607;49.550;11.940;2024-02-15T06:06:27;97254.84;;;8.45;100.00
36598;BME280;22607;49.550;11.940;2024-02-15T06:08:57;97243.16;;;8.39;100.00
36598;BME280;22607;49.550;11.940;2024-02-15T06:11:26;97248.25;;;8.41;100.00
36598;BME280;22607;49.550;11.940;2024-02-15T06:13:54;97224.06;;;8.29;100.00
36598;BME280;22607;49.550;11.940;2024-02-15T06:16:21;97239.03;;;8.37;100.00
36598;BME280;22607;49.550;11.940;2024-02-15T06:18:48;97262.50;;;8.47;100.00
36598;BME280;22607;49.550;11.940;2024-02-15T06:21:15;97258.94;;;8.48;100.00
36598;BME280;22607;49.550;11.940;2024-02-15T06:23:45;97258.94;;;8.48;100.00
36598;BME280;22607;49.550;11.940;2024-02-15T06:26:14;97272.44;;;8.53;100.00
36598;BME280;22607;49.550;11.940;2024-02-15T06:28:42;97277.69;;;8.53;100.00
36598;BME280;22607;49.550;11.940;2024-02-15T06:31:27;97288.69;;;8.47;100.00
36598;BME280;22607;49.550;11.940;2024-02-15T06:34:14;97273.81;;;8.47;100.00
36598;BME280;22607;49.550;11.940;2024-02-15T06:36:59;97277.09;;;8.49;100.00
36598;BME280;22607;49.550;11.940;2024-02-15T06:39:44;97288.41;;;8.50;100.00
36598;BME280;22607;49.550;11.940;2024-02-15T06:42:14;97285.25;;;8.46;100.00
36598;BME280;22607;49.550;11.940;2024-02-15T06:44:48;97277.03;;;8.41;100.00
36598;BME280;22607;49.550;11.940;2024-02-15T06:47:15;97274.94;;;8.45;100.00
36598;BME280;22607;49.550;11.940;2024-02-15T06:49:48;97260.41;;;8.32;100.00
36598;BME280;22607;49.550;11.940;2024-02-15T06:52:21;97271.94;;;8.39;100.00
36598;BME280;22607;49.550;11.940;2024-02-15T06:54:49;97274.69;;;8.38;100.00
36598;BME280;22607;49.550;11.940;2024-02-15T06:57:17;97285.69;;;8.41;100.00
36598;BME280;22607;49.550;11.940;2024-02-15T06:59:46;97290.34;;;8.48;100.00
36598;BME280;22607;49.550;11.940;2024-02-15T07:02:13;97273.88;;;8.37;100.00
36598;BME280;22607;49.550;11.940;2024-02-15T07:04:40;97290.34;;;8.48;100.00
36598;BME280;22607;49.550;11.940;2024-02-15T07:07:09;97286.53;;;8.42;100.00
36598;BME280;22607;49.550;11.940;2024-02-15T07:09:38;97278.88;;;8.31;100.00
36598;BME280;22607;49.550;11.940;2024-02-15T07:12:05;97291.81;;;8.32;100.00
36598;BME280;22607;49.550;11.940;2024-02-15T07:14:34;97284.66;;;8.34;100.00
36598;BME280;22607;49.550;11.940;2024-02-15T07:17:04;97289.19;;;8.32;100.00
36598;BME280;22607;49.550;11.940;2024-02-15T07:19:35;97279.41;;;8.34;100.00
36598;BME280;22607;49.550;11.940;2024-02-15T07:22:06;97271.84;;;8.31;100.00
36598;BME280;22607;49.550;11.940;2024-02-15T07:24:34;97279.66;;;8.41;100.00
36598;BME280;22607;49.550;11.940;2024-02-15T07:27:05;97285.84;;;8.40;100.00
36598;BME280;22607;49.550;11.940;2024-02-15T07:29:34;97286.94;;;8.37;100.00
36598;BME280;22607;49.550;11.940;2024-02-15T07:32:01;97279.66;;;8.41;100.00
36598;BME280;22607;49.550;11.940;2024-02-15T07:34:31;97283.53;;;8.37;100.00
36598;BME280;22607;49.550;11.940;2024-02-15T07:36:57;97298.47;;;8.55;100.00
36598;BME280;22607;49.550;11.940;2024-02-15T07:39:25;97287.84;;;8.56;100.00
36598;BME280;22607;49.550;11.940;2024-02-15T07:41:54;97294.31;;;8.52;100.00
36598;BME280;22607;49.550;11.940;2024-02-15T07:44:22;97295.25;;;8.61;100.00
36598;BME280;22607;49.550;11.940;2024-02-15T07:46:50;97295.13;;;8.62;100.00
36598;BME280;22607;49.550;11.940;2024-02-15T07:49:18;97274.06;;;8.54;100.00
36598;BME280;22607;49.550;11.940;2024-02-15T07:51:45;97283.38;;;8.66;100.00
36598;BME280;22607;49.550;11.940;2024-02-15T07:54:19;97276.78;;;8.62;100.00
36598;BME280;22607;49.550;11.940;2024-02-15T07:56:53;97287.16;;;8.54;100.00
36598;BME280;22607;49.550;11.940;2024-02-15T07:59:20;97281.09;;;8.53;100.00
36598;BME280;22607;49.550;11.940;2024-02-15T08:01:51;97291.66;;;8.62;100.00
36598;BME280;22607;49.550;11.940;2024-02-15T08:04:19;97284.28;;;8.57;100.00
36598;BME280;22607;49.550;11.940;2024-02-15T08:06:51;97262.81;;;8.44;100.00
36598;BME280;22607;49.550;11.940;2024-02-15T08:09:21;97280.75;;;8.66;100.00
36598;BME280;22607;49.550;11.940;2024-02-15T08:11:51;97283.28;;;8.58;100.00
36598;BME280;22607;49.550;11.940;2024-02-15T08:14:17;97270.94;;;8.69;100.00
36598;BME280;22607;49.550;11.940;2024-02-15T08:16:49;97286.66;;;8.87;100.00
36598;BME280;22607;49.550;11.940;2024-02-15T08:19:16;97274.38;;;8.87;100.00
36598;BME280;22607;49.550;11.940;2024-02-15T08:21:43;97276.72;;;8.90;100.00
36598;BME280;22607;49.550;11.940;2024-02-15T08:24:13;97269.81;;;8.89;100.00
36598;BME280;22607;49.550;11.940;2024-02-15T08:26:39;97268.09;;;8.98;100.00
36598;BME280;22607;49.550;11.940;2024-02-15T08:29:09;97273.28;;;9.16;100.00
36598;BME280;22607;49.550;11.940;2024-02-15T08:31:36;97256.66;;;9.26;100.00
36598;BME280;22607;49.550;11.940;2024-02-15T08:34:05;97266.84;;;9.29;100.00
36598;BME280;22607;49.550;11.940;2024-02-15T08:36:37;97264.06;;;9.30;100.00
36598;BME280;22607;49.550;11.940;2024-02-15T08:39:06;97270.53;;;9.44;100.00
36598;BME280;22607;49.550;11.940;2024-02-15T08:41:40;97259.59;;;9.49;100.00
36598;BME280;22607;49.550;11.940;2024-02-15T08:44:07;97267.53;;;9.66;100.00
36598;BME280;22607;49.550;11.940;2024-02-15T08:46:38;97263.63;;;9.70;100.00
36598;BME280;22607;49.550;11.940;2024-02-15T08:49:06;97260.56;;;9.75;100.00
36598;BME280;22607;49.550;11.940;2024-02-15T08:51:33;97249.13;;;9.84;100.00
36598;BME280;22607;49.550;11.940;2024-02-15T08:54:01;97229.44;;;9.80;100.00
36598;BME280;22607;49.550;11.940;2024-02-15T08:56:27;97250.16;;;10.00;100.00
36598;BME280;22607;49.550;11.940;2024-02-15T08:58:56;97254.81;;;10.14;100.00
36598;BME280;22607;49.550;11.940;2024-02-15T09:01:27;97264.16;;;10.17;100.00
36598;BME280;22607;49.550;11.940;2024-02-15T09:03:56;97265.16;;;10.16;100.00
36598;BME280;22607;49.550;11.940;2024-02-15T09:06:23;97258.47;;;10.21;100.00
36598;BME280;22607;49.550;11.940;2024-02-15T09:08:50;97252.41;;;10.29;100.00
36598;BME280;22607;49.550;11.940;2024-02-15T09:11:17;97252.44;;;10.46;100.00
36598;BME280;22607;49.550;11.940;2024-02-15T09:13:44;97258.03;;;10.43;100.00
36598;BME280;22607;49.550;11.940;2024-02-15T09:16:10;97253.31;;;10.63;100.00
36598;BME280;22607;49.550;11.940;2024-02-15T09:18:38;97260.88;;;10.74;100.00
36598;BME280;22607;49.550;11.940;2024-02-15T09:21:11;97245.13;;;10.83;100.00
36598;BME280;22607;49.550;11.940;2024-02-15T09:23:40;97238.22;;;10.90;100.00
36598;BME280;22607;49.550;11.940;2024-02-15T09:26:08;97242.50;;;10.99;100.00
36598;BME280;22607;49.550;11.940;2024-02-15T09:28:36;97229.03;;;10.77;100.00
36598;BME280;22607;49.550;11.940;2024-02-15T09:31:14;97225.44;;;10.95;100.00
36598;BME280;22607;49.550;11.940;2024-02-15T09:33:41;97248.06;;;11.13;100.00
36598;BME280;22607;49.550;11.940;2024-02-15T09:36:09;97232.97;;;10.98;100.00
36598;BME280;22607;49.550;11.940;2024-02-15T09:38:36;97236.56;;;11.22;100.00
36598;BME280;22607;49.550;11.940;2024-02-15T09:41:03;97239.50;;;11.27;100.00
36598;BME280;22607;49.550;11.940;2024-02-15T09:43:38;97235.72;;;11.38;100.00
36598;BME280;22607;49.550;11.940;2024-02-15T09:46:08;97240.47;;;11.51;100.00
36598;BME280;22607;49.550;11.940;2024-02-15T09:48:35;97249.56;;;11.89;100.00
36598;BME280;22607;49.550;11.940;2024-02-15T09:51:10;97235.28;;;12.23;100.00
36598;BME280;22607;49.550;11.940;2024-02-15T09:53:39;97234.69;;;12.44;100.00
36598;BME280;22607;49.550;11.940;2024-02-15T09:56:15;97231.28;;;12.82;100.00
36598;BME280;22607;49.550;11.940;2024-02-15T09:58:43;97229.50;;;12.98;100.00
36598;BME280;22607;49.550;11.940;2024-02-15T10:01:10;97212.44;;;12.70;100.00
36598;BME280;22607;49.550;11.940;2024-02-15T10:03:41;97215.38;;;12.76;100.00
36598;BME280;22607;49.550;11.940;2024-02-15T10:06:10;97233.59;;;13.00;100.00
36598;BME280;22607;49.550;11.940;2024-02-15T10:08:40;97228.09;;;13.10;100.00
36598;BME280;22607;49.550;11.940;2024-02-15T10:11:10;97238.47;;;13.27;100.00
36598;BME280;22607;49.550;11.940;2024-02-15T10:13:42;97234.94;;;13.35;100.00
36598;BME280;22607;49.550;11.940;2024-02-15T10:16:19;97223.78;;;13.63;100.00
36598;BME280;22607;49.550;11.940;2024-02-15T10:18:52;97231.53;;;13.64;100.00
36598;BME280;22607;49.550;11.940;2024-02-15T10:21:26;97238.00;;;13.92;100.00
36598;BME280;22607;49.550;11.940;2024-02-15T10:24:06;97222.97;;;13.93;100.00
36598;BME280;22607;49.550;11.940;2024-02-15T10:26:34;97220.28;;;14.23;100.00
36598;BME280;22607;49.550;11.940;2024-02-15T10:29:06;97228.03;;;14.24;100.00
36598;BME280;22607;49.550;11.940;2024-02-15T10:31:37;97217.81;;;14.21;100.00
36598;BME280;22607;49.550;11.940;2024-02-15T10:34:06;97218.84;;;14.20;100.00
36598;BME280;22607;49.550;11.940;2024-02-15T10:36:34;97218.09;;;14.11;100.00
36598;BME280;22607;49.550;11.940;2024-02-15T10:39:17;97225.59;;;13.93;100.00
36598;BME280;22607;49.550;11.940;2024-02-15T10:41:51;97219.63;;;13.69;100.00
36598;BME280;22607;49.550;11.940;2024-02-15T10:44:24;97208.72;;;13.72;100.00
36598;BME280;22607;49.550;11.940;2024-02-15T10:46:53;97206.16;;;13.63;100.00
36598;BME280;22607;49.550;11.940;2024-02-15T10:49:27;97200.69;;;13.50;100.00
36598;BME280;22607;49.550;11.940;2024-02-15T10:52:01;97203.03;;;13.45;100.00
36598;BME280;22607;49.550;11.940;2024-02-15T10:54:40;97203.59;;;13.55;100.00
36598;BME280;22607;49.550;11.940;2024-02-15T10:57:11;97157.63;;;13.34;100.00
36598;BME280;22607;49.550;11.940;2024-02-15T11:00:11;97173.84;;;13.46;100.00
36598;BME280;22607;49.550;11.940;2024-02-15T11:05:37;97175.94;;;13.81;100.00
36598;BME280;22607;49.550;11.940;2024-02-15T11:08:08;97174.16;;;14.03;100.00
36598;BME280;22607;49.550;11.940;2024-02-15T11:10:43;97173.28;;;14.18;100.00
36598;BME280;22607;49.550;11.940;2024-02-15T11:13:13;97166.81;;;14.21;99.39
36598;BME280;22607;49.550;11.940;2024-02-15T11:15:45;97154.66;;;14.04;100.00
36598;BME280;22607;49.550;11.940;2024-02-15T11:18:48;97160.72;;;14.42;100.00
36598;BME280;22607;49.550;11.940;2024-02-15T11:21:18;97162.16;;;14.44;97.32
36598;BME280;22607;49.550;11.940;2024-02-15T11:24:25;97160.91;;;14.40;96.09
36598;BME280;22607;49.550;11.940;2024-02-15T11:26:58;97146.31;;;14.23;99.13
36598;BME280;22607;49.550;11.940;2024-02-15T11:29:51;97126.53;;;13.97;100.00
36598;BME280;22607;49.550;11.940;2024-02-15T11:32:45;97140.78;;;14.17;100.00
36598;BME280;22607;49.550;11.940;2024-02-15T11:35:25;97116.75;;;14.12;100.00
36598;BME280;22607;49.550;11.940;2024-02-15T11:37:58;97106.91;;;13.84;100.00
36598;BME280;22607;49.550;11.940;2024-02-15T11:43:45;97127.19;;;14.21;95.74
36598;BME280;22607;49.550;11.940;2024-02-15T11:46:13;97141.53;;;14.33;99.08
36598;BME280;22607;49.550;11.940;2024-02-15T11:48:42;97126.69;;;14.32;100.00
36598;BME280;22607;49.550;11.940;2024-02-15T11:51:10;97128.44;;;14.25;100.00
36598;BME280;22607;49.550;11.940;2024-02-15T11:53:40;97134.69;;;14.39;96.81
36598;BME280;22607;49.550;11.940;2024-02-15T11:56:08;97127.69;;;14.31;99.91
36598;BME280;22607;49.550;11.940;2024-02-15T11:58:40;97116.69;;;14.27;99.09
36598;BME280;22607;49.550;11.940;2024-02-15T12:01:19;97110.75;;;14.47;94.48
36598;BME280;22607;49.550;11.940;2024-02-15T12:04:04;97103.22;;;14.73;90.02
36598;BME280;22607;49.550;11.940;2024-02-15T12:06:58;97119.75;;;14.75;87.66
36598;BME280;22607;49.550;11.940;2024-02-15T12:09:44;97116.25;;;14.74;87.64
36598;BME280;22607;49.550;11.940;2024-02-15T12:12:32;97110.19;;;14.74;89.21
36598;BME280;22607;49.550;11.940;2024-02-15T12:15:17;97096.50;;;14.92;85.35
36598;BME280;22607;49.550;11.940;2024-02-15T12:18:15;97099.75;;;14.65;85.72
36598;BME280;22607;49.550;11.940;2024-02-15T12:21:02;97114.28;;;14.76;83.55
36598;BME280;22607;49.550;11.940;2024-02-15T12:23:29;97087.06;;;14.82;83.09
36598;BME280;22607;49.550;11.940;2024-02-15T12:26:02;97090.31;;;14.85;83.08
36598;BME280;22607;49.550;11.940;2024-02-15T12:28:37;97071.88;;;14.63;87.23
36598;BME280;22607;49.550;11.940;2024-02-15T12:31:12;97100.75;;;14.64;89.83
36598;BME280;22607;49.550;11.940;2024-02-15T12:33:40;97099.72;;;14.87;87.20
36598;BME280;22607;49.550;11.940;2024-02-15T12:36:08;97084.66;;;14.88;88.13
36598;BME280;22607;49.550;11.940;2024-02-15T12:38:35;97091.94;;;14.79;85.14
36598;BME280;22607;49.550;11.940;2024-02-15T12:41:20;97084.13;;;14.70;81.83
36598;BME280;22607;49.550;11.940;2024-02-15T12:43:54;97078.78;;;14.64;82.30
36598;BME280;22607;49.550;11.940;2024-02-15T12:46:21;97072.53;;;14.72;83.00
36598;BME280;22607;49.550;11.940;2024-02-15T12:48:48;97086.00;;;15.05;82.57
36598;BME280;22607;49.550;11.940;2024-02-15T12:51:16;97073.47;;;14.86;82.63
36598;BME280;22607;49.550;11.940;2024-02-15T12:53:43;97077.31;;;14.83;81.83
36598;BME280;22607;49.550;11.940;2024-02-15T12:56:10;97068.91;;;15.08;77.54
36598;BME280;22607;49.550;11.940;2024-02-15T12:58:37;97058.03;;;15.25;77.11
36598;BME280;22607;49.550;11.940;2024-02-15T13:01:11;97066.69;;;15.12;75.95
36598;BME280;22607;49.550;11.940;2024-02-15T13:03:40;97079.91;;;15.12;77.21
36598;BME280;22607;49.550;11.940;2024-02-15T13:06:07;97060.38;;;15.06;74.94
36598;BME280;22607;49.550;11.940;2024-02-15T13:08:41;97075.53;;;14.90;77.12
36598;BME280;22607;49.550;11.940;2024-02-15T13:11:08;97076.63;;;15.03;76.40
36598;BME280;22607;49.550;11.940;2024-02-15T13:13:39;97056.38;;;15.23;74.50